createdAt,value
2023-04-28T00:00:19.125Z,6.78
2023-04-28T00:02:48.005Z,6.80
2023-04-28T00:05:14.749Z,6.84
2023-04-28T00:07:41.312Z,6.86
2023-04-28T00:10:08.456Z,6.88
2023-04-28T00:12:35.070Z,6.89
2023-04-28T00:15:03.813Z,6.91
2023-04-28T00:17:31.006Z,6.98
2023-04-28T00:19:57.681Z,6.96
2023-04-28T00:22:24.099Z,6.97
2023-04-28T00:24:50.723Z,7.04
2023-04-28T00:27:17.866Z,7.05
2023-04-28T00:29:44.348Z,7.02
2023-04-28T00:32:10.895Z,7.03
2023-04-28T00:34:37.367Z,7.04
2023-04-28T00:37:04.468Z,7.15
2023-04-28T00:39:30.873Z,7.20
2023-04-28T00:41:57.750Z,7.15
2023-04-28T00:44:24.152Z,7.12
2023-04-28T00:46:50.768Z,7.23
2023-04-28T00:49:17.164Z,7.30
2023-04-28T00:51:43.683Z,7.20
2023-04-28T00:54:14.420Z,7.11
2023-04-28T00:56:41.109Z,7.12
2023-04-28T00:59:07.613Z,7.14
2023-04-28T01:01:35.103Z,7.20
2023-04-28T01:04:02.526Z,7.27
2023-04-28T01:06:30.768Z,7.18
2023-04-28T01:08:59.924Z,7.14
2023-04-28T01:11:26.680Z,7.19
2023-04-28T01:14:03.658Z,7.16
2023-04-28T01:16:35.473Z,7.23
2023-04-28T01:19:02.876Z,7.28
2023-04-28T01:21:34.481Z,7.18
2023-04-28T01:24:09.397Z,7.19
2023-04-28T01:26:35.913Z,7.21
2023-04-28T01:29:02.503Z,7.16
2023-04-28T01:31:33.025Z,7.15
2023-04-28T01:34:00.206Z,7.26
2023-04-28T01:36:28.464Z,7.21
2023-04-28T01:38:55.382Z,7.21
2023-04-28T01:41:22.324Z,7.13
2023-04-28T01:43:49.031Z,7.07
2023-04-28T01:46:15.636Z,7.02
2023-04-28T01:48:42.189Z,6.98
2023-04-28T01:51:08.599Z,7.00
2023-04-28T01:53:38.177Z,7.03
2023-04-28T01:56:04.820Z,7.01
2023-04-28T01:58:31.385Z,7.01
2023-04-28T02:00:58.638Z,6.98
2023-04-28T02:03:25.573Z,7.04
2023-04-28T02:05:52.350Z,7.19
2023-04-28T02:08:18.807Z,7.02
2023-04-28T02:10:45.522Z,7.16
2023-04-28T02:13:12.092Z,7.15
2023-04-28T02:15:42.690Z,7.07
2023-04-28T02:18:10.437Z,7.02
2023-04-28T02:20:39.659Z,6.91
2023-04-28T02:23:07.835Z,6.85
2023-04-28T02:25:34.472Z,7.04
2023-04-28T02:28:00.940Z,6.98
2023-04-28T02:30:27.462Z,7.02
2023-04-28T02:32:55.736Z,7.04
2023-04-28T02:35:22.164Z,7.09
2023-04-28T02:37:48.954Z,6.90
2023-04-28T02:40:15.444Z,6.86
2023-04-28T02:42:41.895Z,6.89
2023-04-28T02:45:08.485Z,6.89
2023-04-28T02:47:34.963Z,6.90
2023-04-28T02:50:02.802Z,6.95
2023-04-28T02:52:29.309Z,6.89
2023-04-28T02:54:57.448Z,6.91
2023-04-28T02:57:24.992Z,6.88
2023-04-28T02:59:51.433Z,6.81
2023-04-28T03:02:18.026Z,6.93
2023-04-28T03:04:44.499Z,6.81
2023-04-28T03:07:11.333Z,6.85
2023-04-28T03:09:37.806Z,6.84
2023-04-28T03:12:04.470Z,6.83
2023-04-28T03:14:32.492Z,6.78
2023-04-28T03:16:59.038Z,6.77
2023-04-28T03:19:26.461Z,6.74
2023-04-28T03:21:53.042Z,6.66
2023-04-28T03:24:19.463Z,6.67
2023-04-28T03:26:46.022Z,6.67
2023-04-28T03:29:12.598Z,6.65
2023-04-28T03:31:39.128Z,6.66
2023-04-28T03:34:05.792Z,6.71
2023-04-28T03:36:33.043Z,6.64
2023-04-28T03:39:07.562Z,6.57
2023-04-28T03:41:34.340Z,6.56
2023-04-28T03:44:26.789Z,6.61
2023-04-28T03:46:53.325Z,6.56
2023-04-28T03:49:19.697Z,6.58
2023-04-28T03:51:46.607Z,6.51
2023-04-28T03:54:13.540Z,6.60
2023-04-28T03:56:41.340Z,6.68
2023-04-28T03:59:07.837Z,6.53
2023-04-28T04:01:34.464Z,6.50
2023-04-28T04:04:01.324Z,6.55
2023-04-28T04:06:27.984Z,6.65
2023-04-28T04:08:54.757Z,6.60
2023-04-28T04:11:21.231Z,6.61
2023-04-28T04:13:47.902Z,6.71
2023-04-28T04:16:16.689Z,6.75
2023-04-28T04:18:43.218Z,6.61
2023-04-28T04:21:16.256Z,6.69
2023-04-28T04:23:42.651Z,6.64
2023-04-28T04:26:09.171Z,6.61
2023-04-28T04:28:36.413Z,6.70
2023-04-28T04:31:05.024Z,6.79
2023-04-28T04:33:32.041Z,6.71
2023-04-28T04:35:58.758Z,6.71
2023-04-28T04:38:25.357Z,6.71
2023-04-28T04:40:53.408Z,6.74
2023-04-28T04:43:19.888Z,6.84
2023-04-28T04:45:49.523Z,6.92
2023-04-28T04:48:16.847Z,6.92
2023-04-28T04:50:44.420Z,6.92
2023-04-28T04:53:14.686Z,6.88
2023-04-28T04:55:43.257Z,6.92
2023-04-28T04:58:09.974Z,7.14
2023-04-28T05:00:42.261Z,7.13
2023-04-28T05:03:10.527Z,7.02
2023-04-28T05:05:40.023Z,7.19
2023-04-28T05:08:13.026Z,7.17
2023-04-28T05:10:40.327Z,7.16
2023-04-28T05:13:07.231Z,7.20
2023-04-28T05:15:33.986Z,7.42
2023-04-28T05:18:14.857Z,7.25
2023-04-28T05:20:41.352Z,7.40
2023-04-28T05:23:08.059Z,7.30
2023-04-28T05:25:34.720Z,7.36
2023-04-28T05:28:07.200Z,7.39
2023-04-28T05:30:34.223Z,7.47
2023-04-28T05:33:01.059Z,7.55
2023-04-28T05:35:27.808Z,7.72
2023-04-28T05:37:54.261Z,7.78
2023-04-28T05:40:20.953Z,7.64
2023-04-28T05:42:47.417Z,7.81
2023-04-28T05:45:14.277Z,7.77
2023-04-28T05:47:41.308Z,7.88
2023-04-28T05:50:08.259Z,7.90
2023-04-28T05:52:34.836Z,8.05
2023-04-28T05:55:02.419Z,8.07
2023-04-28T05:57:31.978Z,8.11
2023-04-28T06:00:00.680Z,8.24
2023-04-28T06:02:28.171Z,8.23
2023-04-28T06:04:56.206Z,8.41
2023-04-28T06:07:22.947Z,8.49
2023-04-28T06:09:49.870Z,8.37
2023-04-28T06:12:16.595Z,8.41
2023-04-28T06:14:43.005Z,8.51
2023-04-28T06:17:09.499Z,8.46
2023-04-28T06:19:36.111Z,8.44
2023-04-28T06:22:02.646Z,8.61
2023-04-28T06:24:29.409Z,8.66
2023-04-28T06:26:57.778Z,8.76
2023-04-28T06:29:24.222Z,8.81
2023-04-28T06:31:52.805Z,8.77
2023-04-28T06:34:19.456Z,8.78
2023-04-28T06:36:45.982Z,8.82
2023-04-28T06:39:12.769Z,8.86
2023-04-28T06:41:39.295Z,8.92
2023-04-28T06:44:05.953Z,9.07
2023-04-28T06:46:34.222Z,9.27
2023-04-28T06:49:00.886Z,9.35
2023-04-28T06:51:28.733Z,9.41
2023-04-28T06:53:55.648Z,9.35
2023-04-28T06:56:22.157Z,9.53
2023-04-28T06:58:48.612Z,9.80
2023-04-28T07:01:15.132Z,9.82
2023-04-28T07:03:41.666Z,9.94
2023-04-28T07:06:08.574Z,9.93
2023-04-28T07:08:35.802Z,10.02
2023-04-28T07:11:06.239Z,9.98
2023-04-28T07:13:33.296Z,10.00
2023-04-28T07:15:59.864Z,10.02
2023-04-28T07:18:26.413Z,10.17
2023-04-28T07:20:53.146Z,10.33
2023-04-28T07:23:19.575Z,10.34
2023-04-28T07:25:45.980Z,10.41
2023-04-28T07:28:13.788Z,10.53
2023-04-28T07:30:40.398Z,10.64
2023-04-28T07:33:06.874Z,10.67
2023-04-28T07:35:33.498Z,10.83
2023-04-28T07:38:00.003Z,10.88
2023-04-28T07:40:27.482Z,10.79
2023-04-28T07:42:54.247Z,10.79
2023-04-28T07:45:20.873Z,10.85
2023-04-28T07:47:47.304Z,10.80
2023-04-28T07:50:13.836Z,10.86
2023-04-28T07:52:40.478Z,10.88
2023-04-28T07:55:07.464Z,10.93
2023-04-28T07:57:33.969Z,11.03
2023-04-28T08:00:00.787Z,11.00
2023-04-28T08:02:38.344Z,11.21
2023-04-28T08:05:07.012Z,11.28
2023-04-28T08:07:33.590Z,11.24
2023-04-28T08:10:01.056Z,11.32
2023-04-28T08:12:27.580Z,11.30
2023-04-28T08:14:54.051Z,11.47
2023-04-28T08:17:20.463Z,11.53
2023-04-28T08:19:47.491Z,11.29
2023-04-28T08:22:13.971Z,11.44
2023-04-28T08:24:40.590Z,11.63
2023-04-28T08:27:07.259Z,11.68
2023-04-28T08:29:33.831Z,11.71
2023-04-28T08:32:02.332Z,11.62
2023-04-28T08:34:29.290Z,11.65
2023-04-28T08:36:55.827Z,11.62
2023-04-28T08:39:23.502Z,11.71
2023-04-28T08:41:50.594Z,11.78
2023-04-28T08:44:17.735Z,11.97
2023-04-28T08:46:46.182Z,11.92
2023-04-28T08:49:17.903Z,11.72
2023-04-28T08:51:47.692Z,11.68
2023-04-28T08:54:29.545Z,11.77
2023-04-28T08:56:57.618Z,11.82
2023-04-28T08:59:24.515Z,11.80
2023-04-28T09:01:51.424Z,11.83
2023-04-28T09:04:19.002Z,11.79
2023-04-28T09:06:46.462Z,11.74
2023-04-28T09:09:22.894Z,11.76
2023-04-28T09:12:01.208Z,11.74
2023-04-28T09:14:29.402Z,11.66
2023-04-28T09:16:56.680Z,11.64
2023-04-28T09:19:23.585Z,11.69
2023-04-28T09:21:53.085Z,11.80
2023-04-28T09:24:26.955Z,11.64
2023-04-28T09:26:55.474Z,11.60
2023-04-28T09:29:22.680Z,11.56
2023-04-28T09:31:49.451Z,11.53
2023-04-28T09:34:16.207Z,11.58
2023-04-28T09:36:42.989Z,11.69
2023-04-28T09:39:09.484Z,11.83
2023-04-28T09:41:41.475Z,11.72
2023-04-28T09:44:19.702Z,11.61
2023-04-28T09:46:47.036Z,11.58
2023-04-28T09:49:14.203Z,11.64
2023-04-28T09:51:41.439Z,11.83
2023-04-28T09:54:08.035Z,11.82
2023-04-28T09:56:40.877Z,11.86
2023-04-28T09:59:08.054Z,12.04
2023-04-28T10:01:40.977Z,12.08
2023-04-28T10:04:09.274Z,12.05
2023-04-28T10:06:36.762Z,12.10
2023-04-28T10:09:03.862Z,12.20
2023-04-28T10:11:30.798Z,12.29
2023-04-28T10:13:57.285Z,12.49
2023-04-28T10:16:24.499Z,12.63
2023-04-28T10:18:52.744Z,12.53
2023-04-28T10:21:22.434Z,12.64
2023-04-28T10:24:15.003Z,12.54
2023-04-28T10:27:05.521Z,12.73
2023-04-28T10:29:36.121Z,12.78
2023-04-28T10:32:19.254Z,12.82
2023-04-28T10:34:45.881Z,12.85
2023-04-28T10:37:14.904Z,12.94
2023-04-28T10:40:02.568Z,13.18
2023-04-28T10:42:51.610Z,13.48
2023-04-28T10:45:56.202Z,13.63
2023-04-28T10:48:49.273Z,13.70
2023-04-28T10:51:15.722Z,13.71
2023-04-28T10:53:45.473Z,13.98
2023-04-28T10:56:13.077Z,14.46
2023-04-28T10:58:44.967Z,14.52
2023-04-28T11:01:21.555Z,14.70
2023-04-28T11:04:08.512Z,14.51
2023-04-28T11:06:42.309Z,14.46
2023-04-28T11:09:14.973Z,14.42
2023-04-28T11:12:10.705Z,14.07
2023-04-28T11:14:40.239Z,14.22
2023-04-28T11:17:13.208Z,14.31
2023-04-28T11:19:45.272Z,14.30
2023-04-28T11:22:16.845Z,14.13
2023-04-28T11:25:04.060Z,14.10
2023-04-28T11:27:32.790Z,14.09
2023-04-28T11:30:00.179Z,14.12
2023-04-28T11:32:33.841Z,13.95
2023-04-28T11:35:02.444Z,14.19
2023-04-28T11:37:28.810Z,14.16
2023-04-28T11:39:55.356Z,14.09
2023-04-28T11:42:21.826Z,13.98
2023-04-28T11:44:52.847Z,13.92
2023-04-28T11:47:30.178Z,13.82
2023-04-28T11:49:56.982Z,13.97
2023-04-28T11:52:23.668Z,13.94
2023-04-28T11:54:55.388Z,13.85
2023-04-28T11:57:23.317Z,13.82
2023-04-28T11:59:50.787Z,13.84
2023-04-28T12:02:29.110Z,13.70
2023-04-28T12:04:56.333Z,13.83
2023-04-28T12:07:23.607Z,13.60
2023-04-28T12:10:13.036Z,13.58
2023-04-28T12:12:50.619Z,13.46
2023-04-28T12:15:20.802Z,13.41
2023-04-28T12:17:48.692Z,13.59
2023-04-28T12:20:39.305Z,13.71
2023-04-28T12:23:07.935Z,13.68
2023-04-28T12:25:43.599Z,13.97
2023-04-28T12:28:10.674Z,14.15
2023-04-28T12:30:43.941Z,14.18
2023-04-28T12:33:27.414Z,13.98
2023-04-28T12:35:55.150Z,14.02
2023-04-28T12:38:22.285Z,14.18
2023-04-28T12:40:48.874Z,14.12
2023-04-28T12:43:15.451Z,14.06
2023-04-28T12:45:41.962Z,13.89
2023-04-28T12:48:08.405Z,14.30
2023-04-28T12:50:35.325Z,14.39
2023-04-28T12:53:02.460Z,14.25
2023-04-28T12:55:29.365Z,14.34
2023-04-28T12:57:55.825Z,14.36
2023-04-28T13:00:23.206Z,14.20
2023-04-28T13:02:50.037Z,14.24
2023-04-28T13:05:16.824Z,14.27
2023-04-28T13:07:43.285Z,14.40
2023-04-28T13:10:10.233Z,14.23
2023-04-28T13:12:36.757Z,14.13
2023-04-28T13:15:04.115Z,14.27
2023-04-28T13:17:30.716Z,14.12
2023-04-28T13:19:57.187Z,14.16
2023-04-28T13:22:23.603Z,14.26
2023-04-28T13:24:50.670Z,14.39
2023-04-28T13:27:17.272Z,14.47
2023-04-28T13:29:43.680Z,14.51
2023-04-28T13:32:10.490Z,14.45
2023-04-28T13:34:38.071Z,14.33
2023-04-28T13:37:04.569Z,14.38
2023-04-28T13:39:31.589Z,14.25
2023-04-28T13:41:58.045Z,14.11
2023-04-28T13:44:24.522Z,14.03
2023-04-28T13:46:51.163Z,14.17
2023-04-28T13:49:17.766Z,14.31
2023-04-28T13:51:45.592Z,14.38
2023-04-28T13:54:12.229Z,14.42
2023-04-28T13:56:38.652Z,14.26
2023-04-28T13:59:05.181Z,14.06
2023-04-28T14:01:31.706Z,14.18
2023-04-28T14:03:58.328Z,14.23
2023-04-28T14:06:25.034Z,14.14
2023-04-28T14:08:52.521Z,14.21
2023-04-28T14:11:18.916Z,14.12
2023-04-28T14:13:45.367Z,14.21
2023-04-28T14:16:11.983Z,13.96
2023-04-28T14:18:38.631Z,13.86
2023-04-28T14:21:08.021Z,13.98
2023-04-28T14:23:35.609Z,14.05
2023-04-28T14:26:02.744Z,14.16
2023-04-28T14:28:29.279Z,14.37
2023-04-28T14:30:55.963Z,14.64
2023-04-28T14:33:22.394Z,14.95
2023-04-28T14:35:48.805Z,15.07
2023-04-28T14:38:15.264Z,15.22
2023-04-28T14:40:42.948Z,15.71
2023-04-28T14:43:09.481Z,15.57
2023-04-28T14:45:37.502Z,15.23
2023-04-28T14:48:04.310Z,14.94
2023-04-28T14:50:30.813Z,14.85
2023-04-28T14:53:00.234Z,14.91
2023-04-28T14:55:28.030Z,15.02
2023-04-28T14:57:54.651Z,14.96
2023-04-28T15:00:21.038Z,14.92
2023-04-28T15:02:47.718Z,14.72
2023-04-28T15:05:14.174Z,14.75
2023-04-28T15:07:40.826Z,14.85
2023-04-28T15:10:07.917Z,14.68
2023-04-28T15:12:35.369Z,14.87
2023-04-28T15:15:02.499Z,14.61
2023-04-28T15:17:29.067Z,14.64
2023-04-28T15:19:55.685Z,14.53
2023-04-28T15:22:22.097Z,14.60
2023-04-28T15:24:48.887Z,14.48
2023-04-28T15:27:15.629Z,14.30
2023-04-28T15:29:42.098Z,14.38
2023-04-28T15:32:08.640Z,14.34
2023-04-28T15:34:35.365Z,14.04
2023-04-28T15:37:39.259Z,13.93
2023-04-28T15:40:06.303Z,13.98
2023-04-28T15:42:32.910Z,13.91
2023-04-28T15:44:59.677Z,13.67
2023-04-28T15:47:26.100Z,13.66
2023-04-28T15:49:52.690Z,13.69
2023-04-28T15:52:19.195Z,13.55
2023-04-28T15:54:46.471Z,13.42
2023-04-28T15:57:12.878Z,13.39
2023-04-28T15:59:39.392Z,13.36
2023-04-28T16:02:06.519Z,13.29
2023-04-28T16:04:33.222Z,13.27
2023-04-28T16:07:02.542Z,13.13
2023-04-28T16:09:29.708Z,13.13
2023-04-28T16:11:59.273Z,13.07
2023-04-28T16:14:26.801Z,13.04
2023-04-28T16:16:53.242Z,12.94
2023-04-28T16:19:19.686Z,12.87
2023-04-28T16:21:46.138Z,12.85
2023-04-28T16:24:12.874Z,12.95
2023-04-28T16:26:39.274Z,12.86
2023-04-28T16:29:05.911Z,12.84
2023-04-28T16:31:33.853Z,12.78
2023-04-28T16:34:00.477Z,12.77
2023-04-28T16:36:33.131Z,12.76
2023-04-28T16:38:59.603Z,12.66
2023-04-28T16:41:26.083Z,12.69
2023-04-28T16:43:52.853Z,12.70
2023-04-28T16:46:19.316Z,12.60
2023-04-28T16:48:45.748Z,12.71
2023-04-28T16:51:12.255Z,12.59
2023-04-28T16:53:39.127Z,12.60
2023-04-28T16:56:10.247Z,12.60
2023-04-28T16:58:37.141Z,12.60
2023-04-28T17:01:03.865Z,12.68
2023-04-28T17:03:30.895Z,12.70
2023-04-28T17:05:57.490Z,12.72
2023-04-28T17:08:23.940Z,12.78
2023-04-28T17:10:50.633Z,12.94
2023-04-28T17:13:17.010Z,12.86
2023-04-28T17:15:43.677Z,12.87
2023-04-28T17:18:10.109Z,12.79
2023-04-28T17:20:38.137Z,12.81
2023-04-28T17:23:04.610Z,12.67
2023-04-28T17:25:31.412Z,12.70
2023-04-28T17:27:59.521Z,12.62
2023-04-28T17:30:26.086Z,12.60
2023-04-28T17:32:52.718Z,12.58
2023-04-28T17:35:19.211Z,12.69
2023-04-28T17:37:45.762Z,12.81
2023-04-28T17:40:12.910Z,12.73
2023-04-28T17:42:39.336Z,12.72
2023-04-28T17:45:07.352Z,12.71
2023-04-28T17:47:34.067Z,12.73
2023-04-28T17:50:00.616Z,12.64
2023-04-28T17:52:27.521Z,12.70
2023-04-28T17:54:54.297Z,12.57
2023-04-28T17:57:21.209Z,12.49
2023-04-28T17:59:51.027Z,12.64
2023-04-28T18:02:20.331Z,12.57
2023-04-28T18:04:46.921Z,12.48
2023-04-28T18:07:13.370Z,12.45
2023-04-28T18:09:39.802Z,12.52
2023-04-28T18:12:06.912Z,12.53
2023-04-28T18:14:33.918Z,12.54
2023-04-28T18:17:00.422Z,12.46
2023-04-28T18:19:28.541Z,12.43
2023-04-28T18:21:56.683Z,12.41
2023-04-28T18:24:24.217Z,12.39
2023-04-28T18:26:50.719Z,12.55
2023-04-28T18:29:18.709Z,12.39
2023-04-28T18:31:45.520Z,12.37
2023-04-28T18:34:12.048Z,12.37
2023-04-28T18:36:38.452Z,12.36
2023-04-28T18:39:06.178Z,12.35
2023-04-28T18:41:34.516Z,12.35
2023-04-28T18:44:01.940Z,12.35
2023-04-28T18:46:29.270Z,12.37
2023-04-28T18:48:56.380Z,12.31
2023-04-28T18:51:22.889Z,12.27
2023-04-28T18:53:49.563Z,12.24
2023-04-28T18:56:16.557Z,12.24
2023-04-28T18:58:42.945Z,12.23
2023-04-28T19:01:13.997Z,12.20
2023-04-28T19:03:40.727Z,12.16
2023-04-28T19:06:07.407Z,12.11
2023-04-28T19:08:33.995Z,12.05
2023-04-28T19:11:00.508Z,12.00
2023-04-28T19:13:26.896Z,11.94
2023-04-28T19:15:57.023Z,11.91
2023-04-28T19:18:23.457Z,11.86
2023-04-28T19:20:52.454Z,11.83
2023-04-28T19:23:18.900Z,11.80
2023-04-28T19:25:45.514Z,11.75
2023-04-28T19:28:11.922Z,11.72
2023-04-28T19:30:38.426Z,11.75
2023-04-28T19:33:04.914Z,11.75
2023-04-28T19:35:31.583Z,11.73
2023-04-28T19:37:58.114Z,11.74
2023-04-28T19:40:26.162Z,11.71
2023-04-28T19:42:52.840Z,11.72
2023-04-28T19:45:19.215Z,11.80
2023-04-28T19:47:45.668Z,11.75
2023-04-28T19:50:12.279Z,11.76
2023-04-28T19:52:38.718Z,11.66
2023-04-28T19:55:06.221Z,11.63
2023-04-28T19:57:32.736Z,11.61
2023-04-28T19:59:59.406Z,11.59
2023-04-28T20:02:26.414Z,11.55
2023-04-28T20:04:53.039Z,11.55
2023-04-28T20:07:19.589Z,11.56
2023-04-28T20:09:46.184Z,11.75
2023-04-28T20:12:12.634Z,11.75
2023-04-28T20:14:39.035Z,11.86
2023-04-28T20:17:07.371Z,11.86
2023-04-28T20:19:34.830Z,11.91
2023-04-28T20:22:07.666Z,11.89
2023-04-28T20:24:35.240Z,11.92
2023-04-28T20:27:03.721Z,12.04
2023-04-28T20:29:34.218Z,11.99
2023-04-28T20:32:02.774Z,12.04
2023-04-28T20:34:29.374Z,12.20
2023-04-28T20:36:57.910Z,12.13
2023-04-28T20:39:24.301Z,12.14
2023-04-28T20:41:51.580Z,12.11
2023-04-28T20:44:18.340Z,12.08
2023-04-28T20:46:45.374Z,12.10
2023-04-28T20:49:12.493Z,12.20
2023-04-28T20:51:45.010Z,12.19
2023-04-28T20:54:13.717Z,12.30
2023-04-28T20:56:41.861Z,12.25
2023-04-28T20:59:08.437Z,12.24
2023-04-28T21:01:34.890Z,12.41
2023-04-28T21:04:03.430Z,12.33
2023-04-28T21:06:29.938Z,12.33
2023-04-28T21:08:56.376Z,12.28
2023-04-28T21:11:22.791Z,12.30
2023-04-28T21:13:50.601Z,12.35
2023-04-28T21:16:20.875Z,12.31
2023-04-28T21:18:48.972Z,12.22
2023-04-28T21:21:15.739Z,12.21
2023-04-28T21:23:42.670Z,12.18
2023-04-28T21:26:10.077Z,12.30
2023-04-28T21:28:37.088Z,12.33
2023-04-28T21:31:04.372Z,12.26
2023-04-28T21:33:32.114Z,12.20
2023-04-28T21:35:58.554Z,12.17
2023-04-28T21:38:25.800Z,12.20
2023-04-28T21:40:52.458Z,12.26
2023-04-28T21:43:19.920Z,12.20
2023-04-28T21:45:46.552Z,12.22
2023-04-28T21:48:13.128Z,12.14
2023-04-28T21:50:39.803Z,12.12
2023-04-28T21:53:06.241Z,12.15
2023-04-28T21:55:32.762Z,12.12
2023-04-28T21:58:00.468Z,12.13
2023-04-28T22:00:27.965Z,12.18
2023-04-28T22:02:56.263Z,12.19
2023-04-28T22:05:24.680Z,12.13
2023-04-28T22:07:52.096Z,12.17
2023-04-28T22:10:19.212Z,12.14
2023-04-28T22:12:47.790Z,12.14
2023-04-28T22:15:14.278Z,12.06
2023-04-28T22:17:40.783Z,12.13
2023-04-28T22:20:08.474Z,12.03
2023-04-28T22:22:35.029Z,12.05
2023-04-28T22:25:02.049Z,11.96
2023-04-28T22:27:30.284Z,12.00
2023-04-28T22:29:58.534Z,11.87
2023-04-28T22:32:26.102Z,11.96
2023-04-28T22:34:53.014Z,11.91
2023-04-28T22:37:19.495Z,11.97
2023-04-28T22:39:45.887Z,11.98
2023-04-28T22:42:12.288Z,11.97
2023-04-28T22:44:38.677Z,11.97
2023-04-28T22:47:05.085Z,11.90
2023-04-28T22:49:31.776Z,11.83
2023-04-28T22:51:58.620Z,11.85
2023-04-28T22:54:25.065Z,11.72
2023-04-28T22:56:53.390Z,11.69
2023-04-28T22:59:19.992Z,11.75
2023-04-28T23:01:46.643Z,11.73
2023-04-28T23:04:13.391Z,11.74
2023-04-28T23:06:39.892Z,11.66
2023-04-28T23:09:06.970Z,11.62
2023-04-28T23:11:33.446Z,11.73
2023-04-28T23:13:59.950Z,11.59
2023-04-28T23:16:26.405Z,11.70
2023-04-28T23:18:53.013Z,11.56
2023-04-28T23:21:19.446Z,11.59
2023-04-28T23:23:46.256Z,11.48
2023-04-28T23:26:12.703Z,11.40
2023-04-28T23:28:39.106Z,11.39
2023-04-28T23:31:05.695Z,11.42
2023-04-28T23:33:32.224Z,11.39
2023-04-28T23:35:58.630Z,11.31
2023-04-28T23:38:26.275Z,11.35
2023-04-28T23:40:53.030Z,11.39
2023-04-28T23:43:19.488Z,11.34
2023-04-28T23:45:45.979Z,11.23
2023-04-28T23:48:12.481Z,11.23
2023-04-28T23:50:38.913Z,11.19
2023-04-28T23:53:05.342Z,11.23
2023-04-28T23:55:32.001Z,11.30
2023-04-28T23:57:58.493Z,11.22
